createdAt,value
2017-10-20T00:00:08.221Z,99.9
2017-10-20T00:05:02.805Z,99.9
2017-10-20T00:10:03.139Z,99.9
2017-10-20T00:15:03.267Z,99.9
2017-10-20T00:20:36.000Z,99.9
2017-10-20T00:25:20.517Z,99.9
2017-10-20T00:30:05.220Z,99.9
2017-10-20T00:35:18.611Z,99.5
2017-10-20T00:40:02.699Z,99.9
2017-10-20T00:45:13.088Z,99.9
2017-10-20T00:50:07.861Z,99.9
2017-10-20T00:55:05.999Z,99.9
2017-10-20T01:00:05.823Z,99.9
2017-10-20T01:05:05.555Z,99.9
2017-10-20T01:10:26.098Z,99.9
2017-10-20T01:15:20.269Z,99.9
2017-10-20T01:20:05.936Z,99.9
2017-10-20T01:25:08.202Z,99.8
2017-10-20T01:30:10.531Z,99.9
2017-10-20T01:35:22.869Z,99.9
2017-10-20T01:40:03.028Z,99.9
2017-10-20T01:45:13.247Z,99.7
2017-10-20T01:50:08.126Z,99.8
2017-10-20T01:55:07.768Z,99.5
2017-10-20T02:05:23.456Z,99.9
2017-10-20T02:10:17.783Z,99.9
2017-10-20T02:15:07.816Z,99.9
2017-10-20T02:20:12.741Z,99.9
2017-10-20T02:25:10.882Z,99.9
2017-10-20T02:30:03.127Z,99.9
2017-10-20T02:35:10.382Z,99.9
2017-10-20T02:40:08.122Z,99.9
2017-10-20T02:45:05.741Z,99.9
2017-10-20T02:50:03.020Z,99.9
2017-10-20T02:55:28.007Z,99.9
2017-10-20T03:00:03.527Z,99.9
2017-10-20T03:05:18.361Z,99.9
2017-10-20T03:10:08.623Z,99.9
2017-10-20T03:15:07.624Z,99.7
2017-10-20T03:20:08.402Z,99.8
2017-10-20T03:25:33.313Z,99.7
2017-10-20T03:30:02.752Z,99.7
2017-10-20T03:35:11.012Z,99.8
2017-10-20T03:40:33.043Z,99.8
2017-10-20T03:45:05.333Z,99.7
2017-10-20T03:50:07.672Z,99.7
2017-10-20T03:55:08.231Z,99.8
2017-10-20T04:00:13.042Z,99.7
2017-10-20T04:05:03.481Z,99.7
2017-10-20T04:10:07.850Z,99.8
2017-10-20T04:15:23.143Z,99.8
2017-10-20T04:20:07.770Z,99.9
2017-10-20T04:25:03.266Z,99.9
2017-10-20T04:30:03.072Z,99.8
2017-10-20T04:35:05.192Z,99.9
2017-10-20T04:40:05.447Z,99.9
2017-10-20T04:45:10.651Z,99.9
2017-10-20T04:50:02.838Z,99.9
2017-10-20T04:55:21.181Z,99.9
2017-10-20T05:00:10.845Z,99.9
2017-10-20T05:05:02.926Z,99.9
2017-10-20T05:10:05.807Z,99.9
2017-10-20T05:15:08.355Z,99.9
2017-10-20T05:20:03.064Z,99.9
2017-10-20T05:25:05.235Z,99.9
2017-10-20T05:30:03.501Z,99.9
2017-10-20T05:35:03.185Z,99.9
2017-10-20T05:40:03.459Z,99.9
2017-10-20T05:45:10.329Z,99.9
2017-10-20T05:50:03.503Z,99.9
2017-10-20T05:55:03.158Z,99.9
2017-10-20T06:00:03.007Z,99.9
2017-10-20T06:05:22.862Z,99.9
2017-10-20T06:10:02.825Z,99.9
2017-10-20T06:15:08.077Z,99.9
2017-10-20T06:20:10.432Z,99.9
2017-10-20T06:25:03.484Z,99.9
2017-10-20T06:30:05.862Z,99.9
2017-10-20T06:35:23.149Z,99.9
2017-10-20T06:40:13.342Z,99.9
2017-10-20T06:45:21.036Z,99.9
2017-10-20T06:50:08.196Z,99.9
2017-10-20T06:55:05.336Z,99.9
2017-10-20T07:00:02.650Z,99.9
2017-10-20T07:05:10.904Z,99.9
2017-10-20T07:10:02.623Z,99.9
2017-10-20T07:15:05.337Z,99.8
2017-10-20T07:25:03.347Z,99.8
2017-10-20T07:30:05.710Z,99.4
2017-10-20T07:35:07.913Z,99.2
2017-10-20T07:40:05.667Z,98.9
2017-10-20T07:45:08.414Z,99.3
2017-10-20T07:50:03.183Z,99.3
2017-10-20T07:55:05.521Z,98.4
2017-10-20T08:00:02.760Z,98.4
2017-10-20T08:05:08.562Z,98.5
2017-10-20T08:10:30.662Z,98.3
2017-10-20T08:15:05.587Z,98
2017-10-20T08:20:05.481Z,98.1
2017-10-20T08:25:02.690Z,98.1
2017-10-20T08:30:06.058Z,97.3
2017-10-20T08:35:03.295Z,97.2
2017-10-20T08:40:07.772Z,97.3
2017-10-20T08:45:08.083Z,97
2017-10-20T08:50:08.025Z,96.7
2017-10-20T08:55:22.930Z,96.9
2017-10-20T09:00:02.582Z,96.9
2017-10-20T09:05:03.372Z,96.8
2017-10-20T09:10:02.783Z,96.2
2017-10-20T09:15:05.634Z,95.6
2017-10-20T09:20:05.488Z,95.2
2017-10-20T09:25:02.836Z,95.2
2017-10-20T09:30:02.793Z,94.9
2017-10-20T09:35:02.753Z,94.2
2017-10-20T09:40:10.813Z,93.4
2017-10-20T09:45:08.619Z,92.8
2017-10-20T09:50:08.578Z,92.5
2017-10-20T09:55:11.020Z,92.4
2017-10-20T10:00:18.563Z,92
2017-10-20T10:05:08.438Z,91.8
2017-10-20T10:10:05.395Z,91.8
2017-10-20T10:15:05.880Z,91.3
2017-10-20T10:20:13.470Z,91.4
2017-10-20T10:25:05.815Z,91.2
2017-10-20T10:30:05.915Z,91
2017-10-20T10:35:03.341Z,91
2017-10-20T10:40:07.988Z,91.3
2017-10-20T10:45:03.381Z,91.3
2017-10-20T10:50:05.931Z,91.3
2017-10-20T10:55:10.997Z,91.3
2017-10-20T11:00:05.964Z,91
2017-10-20T11:05:08.505Z,90.5
2017-10-20T11:10:28.255Z,90.7
2017-10-20T11:15:05.974Z,91.1
2017-10-20T11:20:11.045Z,91.2
2017-10-20T11:25:03.504Z,91.2
2017-10-20T11:30:08.575Z,91.7
2017-10-20T11:35:07.605Z,91.7
2017-10-20T11:40:05.726Z,91.9
2017-10-20T11:45:02.702Z,91.9
2017-10-20T11:50:05.254Z,91.7
2017-10-20T11:55:02.770Z,91.7
2017-10-20T12:00:02.821Z,91.9
2017-10-20T12:05:05.333Z,92.3
2017-10-20T12:10:07.784Z,92.4
2017-10-20T12:15:07.956Z,92.9
2017-10-20T12:20:10.536Z,93.2
2017-10-20T12:25:15.627Z,93.5
2017-10-20T12:30:03.026Z,93.5
2017-10-20T12:35:03.090Z,93.7
2017-10-20T12:40:05.127Z,94.1
2017-10-20T12:45:13.265Z,94.3
2017-10-20T12:50:03.244Z,94.3
2017-10-20T12:55:08.317Z,93.8
2017-10-20T13:00:05.876Z,93.8
2017-10-20T13:05:13.497Z,93.7
2017-10-20T13:10:02.948Z,93.7
2017-10-20T13:15:03.516Z,93.7
2017-10-20T13:20:05.074Z,93.5
2017-10-20T13:25:02.582Z,93.5
2017-10-20T13:30:22.868Z,93.2
2017-10-20T13:35:02.718Z,93.2
2017-10-20T13:40:05.764Z,93
2017-10-20T13:45:02.790Z,93
2017-10-20T13:50:02.828Z,92.5
2017-10-20T13:55:05.352Z,92.5
2017-10-20T14:00:05.422Z,92.6
2017-10-20T14:05:08.025Z,92.3
2017-10-20T14:10:11.225Z,92.4
2017-10-20T14:15:18.326Z,93.1
2017-10-20T14:20:05.721Z,94.1
2017-10-20T14:25:05.794Z,94.7
2017-10-20T14:30:15.992Z,95.5
2017-10-20T14:35:16.018Z,95.5
2017-10-20T14:40:15.655Z,95.4
2017-10-20T14:45:02.564Z,95.4
2017-10-20T14:50:02.637Z,95.3
2017-10-20T14:55:22.909Z,95.3
2017-10-20T15:00:02.737Z,95.3
2017-10-20T15:05:10.342Z,96.4
2017-10-20T15:15:10.414Z,96.2
2017-10-20T15:20:23.159Z,96.5
2017-10-20T15:25:05.416Z,96.7
2017-10-20T15:30:05.457Z,96.8
2017-10-20T15:35:23.233Z,96.7
2017-10-20T15:40:08.614Z,96.8
2017-10-20T15:45:08.123Z,96.7
2017-10-20T15:50:18.241Z,97.1
2017-10-20T15:55:23.297Z,97
2017-10-20T16:00:05.625Z,97.3
2017-10-20T16:05:03.091Z,97.3
2017-10-20T16:10:03.191Z,97.4
2017-10-20T16:15:13.163Z,97
2017-10-20T16:20:10.370Z,96.6
2017-10-20T16:25:05.608Z,96.5
2017-10-20T16:30:03.096Z,96.5
2017-10-20T16:35:10.630Z,96.2
2017-10-20T16:40:03.578Z,96.2
2017-10-20T16:45:10.593Z,95.8
2017-10-20T16:50:15.622Z,94.9
2017-10-20T16:55:02.927Z,94.9
2017-10-20T17:00:10.549Z,94.7
2017-10-20T17:05:10.538Z,94.9
2017-10-20T17:10:16.099Z,95.3
2017-10-20T17:15:05.397Z,95.8
2017-10-20T17:20:07.970Z,96.1
2017-10-20T17:25:15.513Z,96.7
2017-10-20T17:30:02.884Z,96.7
2017-10-20T17:35:05.345Z,96.9
2017-10-20T17:40:05.919Z,96.8
2017-10-20T17:45:02.786Z,96.8
2017-10-20T17:50:02.780Z,96.7
2017-10-20T17:55:05.228Z,97.3
2017-10-20T18:00:02.704Z,97.2
2017-10-20T18:05:02.644Z,97.7
2017-10-20T18:10:13.339Z,97.4
2017-10-20T18:15:02.555Z,97.4
2017-10-20T18:20:16.225Z,97.8
2017-10-20T18:25:11.079Z,97.9
2017-10-20T18:30:06.017Z,98
2017-10-20T18:35:05.949Z,98.1
2017-10-20T18:40:05.492Z,98.1
2017-10-20T18:45:18.534Z,98.5
2017-10-20T18:50:05.866Z,98.8
2017-10-20T18:55:08.328Z,99.1
2017-10-20T19:00:18.435Z,99.3
2017-10-20T19:05:03.159Z,99.3
2017-10-20T19:10:05.158Z,99.9
2017-10-20T19:15:20.754Z,99.8
2017-10-20T19:20:03.058Z,99.7
2017-10-20T19:25:02.933Z,99.7
2017-10-20T19:30:05.447Z,99.4
2017-10-20T19:35:05.385Z,99.1
2017-10-20T19:40:05.798Z,98.7
2017-10-20T19:45:05.199Z,98.2
2017-10-20T19:50:02.657Z,98.2
2017-10-20T19:55:16.186Z,97.5
2017-10-20T20:00:08.523Z,96
2017-10-20T20:05:05.879Z,95.8
2017-10-20T20:10:02.845Z,95.8
2017-10-20T20:15:03.218Z,95.4
2017-10-20T20:20:08.235Z,94.8
2017-10-20T20:25:05.611Z,94.1
2017-10-20T20:30:08.093Z,93.5
2017-10-20T20:35:10.539Z,93.8
2017-10-20T20:40:23.567Z,94.2
2017-10-20T20:50:05.162Z,95.3
2017-10-20T20:55:06.046Z,95.1
2017-10-20T21:00:06.011Z,95.1
2017-10-20T21:05:23.581Z,95.6
2017-10-20T21:10:02.783Z,95.6
2017-10-20T21:15:03.211Z,96
2017-10-20T21:20:08.200Z,96.5
2017-10-20T21:25:13.127Z,96.7
2017-10-20T21:30:05.556Z,96.8
2017-10-20T21:35:07.881Z,96.9
2017-10-20T21:40:03.266Z,96.9
2017-10-20T21:45:20.267Z,97.3
2017-10-20T21:50:11.039Z,97.5
2017-10-20T21:55:10.844Z,97.5
2017-10-20T22:00:13.307Z,97.7
2017-10-20T22:05:02.941Z,97.7
2017-10-20T22:10:03.400Z,97.7
2017-10-20T22:15:02.580Z,97.8
2017-10-20T22:20:11.100Z,97.9
2017-10-20T22:25:05.807Z,98.1
2017-10-20T22:30:05.756Z,98.1
2017-10-20T22:35:02.960Z,98.1
2017-10-20T22:40:03.440Z,98.3
2017-10-20T22:45:03.247Z,98.4
2017-10-20T22:50:06.099Z,98.2
2017-10-20T22:55:03.323Z,98.2
2017-10-20T23:00:05.741Z,98.3
2017-10-20T23:05:15.623Z,98.3
2017-10-20T23:10:10.938Z,98.4
2017-10-20T23:15:02.577Z,98.4
2017-10-20T23:25:18.391Z,98.7
2017-10-20T23:30:08.250Z,98.7
2017-10-20T23:35:05.440Z,98.9
2017-10-20T23:40:03.380Z,98.9
2017-10-20T23:45:20.307Z,98.5
2017-10-20T23:50:11.000Z,98.6
2017-10-20T23:55:03.215Z,98.5
